Time;durP1;ratioP1;P1;durP2;ratioP2;P2;SDS_P1;SDS_P2;PMS_P1;PMS_P2;Temp;Humidity;BMP_temperature;BMP_pressure;BME280_temperature;BME280_humidity;BME280_pressure;Samples;Min_cycle;Max_cycle;Signal;HPM_P1;HPM_P2
2023/06/17 00:01:20;;;;;;;7.72;4.10;;;21.40;48.00;;;;;;5039784;28;20117;-64
2023/06/17 00:03:46;;;;;;;6.40;3.38;;;21.40;48.10;;;;;;5039908;28;20061;-64
2023/06/17 00:06:11;;;;;;;7.78;3.83;;;21.30;48.20;;;;;;5027308;28;20036;-64
2023/06/17 00:08:37;;;;;;;7.45;3.60;;;21.30;48.30;;;;;;5048249;28;20029;-64
2023/06/17 00:11:03;;;;;;;7.90;4.28;;;21.30;48.40;;;;;;5030473;28;20036;-64
2023/06/17 00:13:29;;;;;;;6.95;4.05;;;21.20;48.50;;;;;;5053463;28;20454;-64
2023/06/17 00:15:59;;;;;;;6.93;4.10;;;21.20;48.40;;;;;;5027711;28;20091;-64
2023/06/17 00:18:26;;;;;;;8.07;4.10;;;21.20;48.40;;;;;;5028581;28;20446;-65
2023/06/17 00:20:53;;;;;;;6.95;4.15;;;21.20;48.60;;;;;;5030348;28;20347;-65
2023/06/17 00:23:20;;;;;;;8.07;4.05;;;21.20;48.50;;;;;;5025050;28;20032;-64
2023/06/17 00:25:46;;;;;;;9.63;4.10;;;21.10;48.60;;;;;;5029243;28;20426;-64
2023/06/17 00:28:12;;;;;;;8.15;3.92;;;21.10;48.60;;;;;;5040224;28;20029;-64
2023/06/17 00:30:38;;;;;;;7.13;4.05;;;21.10;48.70;;;;;;5039900;28;20036;-64
2023/06/17 00:33:04;;;;;;;6.45;3.72;;;21.00;48.70;;;;;;5056285;28;20033;-64
2023/06/17 00:35:30;;;;;;;7.13;4.22;;;21.00;48.80;;;;;;5037177;28;20039;-64
2023/06/17 00:37:55;;;;;;;6.50;3.83;;;21.00;48.80;;;;;;5050138;28;20112;-64
2023/06/17 00:40:21;;;;;;;7.18;3.65;;;21.00;48.80;;;;;;5030773;28;20358;-64
2023/06/17 00:42:47;;;;;;;6.88;4.18;;;21.00;48.90;;;;;;5056190;28;20071;-64
2023/06/17 00:45:13;;;;;;;8.45;4.20;;;21.00;49.00;;;;;;5049793;28;20032;-64
2023/06/17 00:47:39;;;;;;;7.05;3.88;;;20.90;49.00;;;;;;5052153;28;20032;-64
2023/06/17 00:50:08;;;;;;;10.20;4.20;;;20.90;49.10;;;;;;5026174;28;20021;-64
2023/06/17 00:52:36;;;;;;;7.75;4.07;;;20.90;49.20;;;;;;5052243;28;20103;-64
2023/06/17 00:55:02;;;;;;;7.85;4.28;;;20.90;49.30;;;;;;5045141;28;20391;-64
2023/06/17 00:57:29;;;;;;;8.15;3.90;;;20.80;49.50;;;;;;5047766;28;20122;-64
2023/06/17 00:59:55;;;;;;;6.65;3.95;;;20.80;49.60;;;;;;5033373;28;20092;-64
2023/06/17 01:02:25;;;;;;;8.85;4.20;;;20.80;49.80;;;;;;5043211;28;20021;-64
2023/06/17 01:04:52;;;;;;;7.70;4.10;;;20.80;49.90;;;;;;5050403;28;20045;-64
2023/06/17 01:07:40;;;;;;;7.18;4.13;;;20.80;50.10;;;;;;5048558;28;20041;-64
2023/06/17 01:10:18;;;;;;;7.93;4.10;;;20.70;50.30;;;;;;5032769;28;20025;-64
2023/06/17 01:12:46;;;;;;;7.05;4.30;;;20.70;50.50;;;;;;5026972;28;20151;-64
2023/06/17 01:15:16;;;;;;;7.13;4.32;;;20.70;50.70;;;;;;5049170;28;20038;-64
2023/06/17 01:17:44;;;;;;;8.20;4.85;;;20.70;50.80;;;;;;5031061;28;20074;-64
2023/06/17 01:20:15;;;;;;;7.13;4.28;;;20.60;51.00;;;;;;5040466;28;21127;-64
2023/06/17 01:22:42;;;;;;;8.45;4.28;;;20.60;51.10;;;;;;5029937;28;20034;-64
2023/06/17 01:25:09;;;;;;;7.70;4.95;;;20.60;51.50;;;;;;5044729;28;20034;-64
2023/06/17 01:27:35;;;;;;;9.48;4.70;;;20.60;51.50;;;;;;5048082;28;20029;-64
2023/06/17 01:30:02;;;;;;;7.75;4.82;;;20.50;51.70;;;;;;5046751;28;20034;-64
2023/06/17 01:32:29;;;;;;;7.30;4.43;;;20.50;52.40;;;;;;5043093;28;20104;-64
2023/06/17 01:35:00;;;;;;;7.63;4.70;;;20.50;52.00;;;;;;5044749;28;20118;-64
2023/06/17 01:37:34;;;;;;;8.15;5.18;;;20.50;52.20;;;;;;5053572;28;20024;-64
2023/06/17 01:40:03;;;;;;;8.43;5.07;;;20.50;52.40;;;;;;5053446;28;20048;-64
2023/06/17 01:42:31;;;;;;;9.32;5.35;;;20.50;52.50;;;;;;5043593;28;20036;-64
2023/06/17 01:45:05;;;;;;;8.68;5.25;;;20.50;52.70;;;;;;5045584;28;20143;-64
2023/06/17 01:47:32;;;;;;;9.00;5.20;;;20.50;52.80;;;;;;5068026;28;20021;-64
2023/06/17 01:50:02;;;;;;;8.60;5.28;;;20.40;52.80;;;;;;5032723;28;20018;-64
2023/06/17 01:52:28;;;;;;;8.73;5.43;;;20.40;52.90;;;;;;5040450;28;20111;-64
2023/06/17 01:54:55;;;;;;;8.63;4.95;;;20.30;53.00;;;;;;5040432;28;20368;-64
2023/06/17 01:57:21;;;;;;;7.90;4.90;;;20.30;53.10;;;;;;5046823;28;20049;-64
2023/06/17 01:59:47;;;;;;;7.63;4.85;;;20.30;53.20;;;;;;5036385;28;20100;-64
2023/06/17 02:02:13;;;;;;;8.88;5.47;;;20.20;53.30;;;;;;5043124;28;20029;-64
2023/06/17 02:04:39;;;;;;;8.43;5.40;;;20.20;53.40;;;;;;5043837;28;20336;-64
2023/06/17 02:07:05;;;;;;;8.05;5.28;;;20.20;53.50;;;;;;5029704;28;20060;-64
2023/06/17 02:09:31;;;;;;;7.68;4.78;;;20.10;53.50;;;;;;5016939;28;20034;-64
2023/06/17 02:11:57;;;;;;;8.02;4.95;;;20.10;53.60;;;;;;5032844;28;20175;-64
2023/06/17 02:14:23;;;;;;;7.68;5.03;;;20.10;53.80;;;;;;5009215;28;20021;-64
2023/06/17 02:16:49;;;;;;;8.57;5.03;;;20.10;53.90;;;;;;5028576;28;20369;-64
2023/06/17 02:19:15;;;;;;;8.80;5.13;;;20.00;53.90;;;;;;5032412;28;20116;-64
2023/06/17 02:21:44;;;;;;;8.07;5.18;;;20.00;54.10;;;;;;5032493;28;20040;-64
2023/06/17 02:24:10;;;;;;;8.60;5.47;;;20.00;54.20;;;;;;5026102;28;20095;-64
2023/06/17 02:26:39;;;;;;;9.98;5.93;;;20.00;54.30;;;;;;5028521;28;20124;-64
2023/06/17 02:29:05;;;;;;;8.65;5.47;;;19.90;54.40;;;;;;5035160;28;20040;-64
2023/06/17 02:31:32;;;;;;;9.07;5.55;;;19.90;54.50;;;;;;5033252;28;20082;-64
2023/06/17 02:33:59;;;;;;;9.57;5.63;;;19.90;54.60;;;;;;5033815;28;20366;-64
2023/06/17 02:40:12;;;;;;;8.38;4.88;;;19.80;54.80;;;;;;5029968;28;20071;-64
2023/06/17 02:42:38;;;;;;;9.75;6.18;;;19.80;54.90;;;;;;5027287;28;20061;-64
2023/06/17 02:45:07;;;;;;;8.75;5.28;;;19.70;55.10;;;;;;5033542;28;20067;-64
2023/06/17 02:47:33;;;;;;;11.48;5.75;;;19.70;55.20;;;;;;5026345;28;20037;-64
2023/06/17 02:49:58;;;;;;;8.80;5.35;;;19.70;55.40;;;;;;5030244;28;20112;-64
2023/06/17 02:52:25;;;;;;;8.57;5.05;;;19.70;55.60;;;;;;5031088;28;20109;-64
2023/06/17 02:54:51;;;;;;;10.48;6.13;;;19.70;55.80;;;;;;5032468;28;20037;-64
2023/06/17 02:57:19;;;;;;;8.60;5.60;;;19.70;55.90;;;;;;5032622;28;20314;-64
2023/06/17 02:59:46;;;;;;;8.90;5.47;;;19.70;56.10;;;;;;5017060;28;20120;-64
2023/06/17 03:02:12;;;;;;;9.23;5.53;;;19.60;56.20;;;;;;5032022;28;20049;-64
2023/06/17 03:04:38;;;;;;;8.77;5.75;;;19.60;56.40;;;;;;5027278;28;20075;-64
2023/06/17 03:07:05;;;;;;;9.18;6.13;;;19.60;56.60;;;;;;5024624;28;20045;-64
2023/06/17 03:09:31;;;;;;;11.23;5.68;;;19.60;56.80;;;;;;5025245;28;20029;-64
2023/06/17 03:12:02;;;;;;;9.27;6.20;;;19.50;56.90;;;;;;5028675;28;20338;-65
2023/06/17 03:14:29;;;;;;;9.15;5.57;;;19.50;57.10;;;;;;5008881;28;20092;-64
2023/06/17 03:16:59;;;;;;;11.20;6.18;;;19.50;57.20;;;;;;5020514;28;20116;-64
2023/06/17 03:19:27;;;;;;;10.32;6.57;;;19.50;57.30;;;;;;5022194;28;20514;-64
2023/06/17 03:21:53;;;;;;;11.20;6.22;;;19.50;57.50;;;;;;5026795;28;20044;-64
2023/06/17 03:24:21;;;;;;;8.95;5.85;;;19.40;57.60;;;;;;5029809;28;20022;-64
2023/06/17 03:26:47;;;;;;;8.80;6.10;;;19.40;57.80;;;;;;5033436;28;20107;-64
2023/06/17 03:29:13;;;;;;;9.32;5.97;;;19.40;57.90;;;;;;5031280;28;20526;-64
2023/06/17 03:31:40;;;;;;;8.63;6.32;;;19.40;58.10;;;;;;5023287;28;20033;-64
2023/06/17 03:34:07;;;;;;;9.63;6.63;;;19.40;58.20;;;;;;5020937;28;20070;-64
2023/06/17 03:36:33;;;;;;;9.07;6.10;;;19.40;58.30;;;;;;5032621;28;20041;-64
2023/06/17 03:38:59;;;;;;;9.52;6.25;;;19.40;58.40;;;;;;5025501;28;20369;-64
2023/06/17 03:41:30;;;;;;;9.40;6.03;;;19.30;58.50;;;;;;5028851;28;20026;-64
2023/06/17 03:43:55;;;;;;;9.82;6.53;;;19.30;58.70;;;;;;5027885;28;21244;-64
2023/06/17 03:46:21;;;;;;;8.60;6.40;;;19.30;58.80;;;;;;5030197;28;20021;-64
2023/06/17 03:48:47;;;;;;;10.98;7.15;;;19.30;59.00;;;;;;5013298;28;20034;-64
2023/06/17 03:51:13;;;;;;;9.32;6.72;;;19.30;59.10;;;;;;5024307;28;20506;-64
2023/06/17 03:53:40;;;;;;;9.20;6.75;;;19.30;59.20;;;;;;5011323;28;20022;-64
2023/06/17 03:56:06;;;;;;;11.57;7.82;;;19.30;59.30;;;;;;5038570;28;20033;-64
2023/06/17 03:58:32;;;;;;;9.50;7.18;;;19.30;59.40;;;;;;5028331;28;20458;-64
2023/06/17 04:00:58;;;;;;;12.27;7.55;;;19.30;59.30;;;;;;5012418;28;20032;-64
2023/06/17 04:03:25;;;;;;;10.93;7.68;;;19.30;59.20;;;;;;5025513;28;20454;-64
2023/06/17 04:05:51;;;;;;;11.00;7.70;;;19.30;59.00;;;;;;5025537;28;20036;-64
2023/06/17 04:08:18;;;;;;;10.45;7.50;;;19.30;59.50;;;;;;5011664;28;20038;-64
2023/06/17 04:10:47;;;;;;;9.90;7.22;;;19.30;58.90;;;;;;5030269;28;20029;-65
2023/06/17 04:13:15;;;;;;;10.23;6.82;;;19.30;58.90;;;;;;5032426;28;20029;-64
2023/06/17 04:15:41;;;;;;;11.95;7.20;;;19.40;58.90;;;;;;5022434;28;20041;-64
2023/06/17 04:18:07;;;;;;;10.13;6.80;;;19.30;58.80;;;;;;5030979;28;20458;-65
2023/06/17 04:20:34;;;;;;;9.55;6.88;;;19.40;58.80;;;;;;5031697;28;20130;-64
2023/06/17 04:23:01;;;;;;;9.52;6.75;;;19.40;58.70;;;;;;5029176;28;20021;-64
2023/06/17 04:25:27;;;;;;;10.98;7.45;;;19.40;58.70;;;;;;5031784;28;20085;-64
2023/06/17 04:27:56;;;;;;;9.30;6.50;;;19.50;58.80;;;;;;5012112;28;20128;-64
2023/06/17 04:30:25;;;;;;;11.35;7.60;;;19.50;58.70;;;;;;5026567;28;20027;-64
2023/06/17 04:32:54;;;;;;;10.55;7.68;;;19.50;58.60;;;;;;5027081;28;20439;-65
2023/06/17 04:35:21;;;;;;;10.77;7.93;;;19.50;58.60;;;;;;5028678;28;20083;-64
2023/06/17 04:37:53;;;;;;;12.02;7.85;;;19.50;58.50;;;;;;5030699;28;20060;-64
2023/06/17 04:40:23;;;;;;;10.88;8.02;;;19.60;58.40;;;;;;5026151;28;20026;-64
2023/06/17 04:42:49;;;;;;;11.10;7.63;;;19.60;58.30;;;;;;5020599;28;20042;-65
2023/06/17 04:45:17;;;;;;;11.00;7.75;;;19.60;58.20;;;;;;5018939;28;20017;-64
2023/06/17 04:47:46;;;;;;;11.15;8.43;;;19.60;58.10;;;;;;5022843;28;20363;-64
2023/06/17 04:50:16;;;;;;;10.60;7.90;;;19.70;58.20;;;;;;5027816;28;20060;-64
2023/06/17 04:52:47;;;;;;;10.18;6.72;;;19.70;58.10;;;;;;5031086;28;20029;-64
2023/06/17 04:55:13;;;;;;;10.23;7.32;;;19.70;58.10;;;;;;5015693;28;20018;-64
2023/06/17 04:57:43;;;;;;;12.60;8.07;;;19.70;58.20;;;;;;5032468;28;20427;-64
2023/06/17 05:00:10;;;;;;;10.63;7.80;;;19.70;58.30;;;;;;5032810;28;20104;-64
2023/06/17 05:02:38;;;;;;;10.98;7.88;;;19.70;58.30;;;;;;5011967;28;20052;-64
2023/06/17 05:05:05;;;;;;;12.77;8.55;;;19.80;58.50;;;;;;5021841;28;20180;-64
2023/06/17 05:07:32;;;;;;;11.57;8.20;;;19.90;58.60;;;;;;5008683;28;20025;-64
2023/06/17 05:09:58;;;;;;;12.55;7.85;;;20.00;58.70;;;;;;5022850;28;20055;-65
2023/06/17 05:12:24;;;;;;;12.32;8.55;;;20.00;58.60;;;;;;5025869;28;20022;-64
2023/06/17 05:14:50;;;;;;;12.30;9.05;;;20.10;58.70;;;;;;5026159;28;20014;-64
2023/06/17 05:17:15;;;;;;;11.48;8.20;;;20.20;58.70;;;;;;5025082;28;20466;-64
2023/06/17 05:19:41;;;;;;;10.82;7.97;;;20.30;58.70;;;;;;5027262;28;20387;-64
2023/06/17 05:22:07;;;;;;;11.85;8.27;;;20.40;58.70;;;;;;5029621;28;20462;-64
2023/06/17 05:24:33;;;;;;;12.27;8.65;;;20.50;58.60;;;;;;5028114;28;20033;-64
2023/06/17 05:26:59;;;;;;;11.13;7.95;;;20.60;58.60;;;;;;5027201;28;20026;-64
2023/06/17 05:29:26;;;;;;;11.05;7.93;;;20.70;58.30;;;;;;5027274;28;20036;-64
2023/06/17 05:31:52;;;;;;;10.85;7.53;;;20.90;58.20;;;;;;5027874;28;20418;-64
2023/06/17 05:34:18;;;;;;;12.13;8.65;;;21.00;58.10;;;;;;5022705;28;20408;-64
2023/06/17 05:36:43;;;;;;;11.07;7.30;;;21.10;57.90;;;;;;5026701;28;20041;-64
2023/06/17 05:39:10;;;;;;;11.07;8.23;;;21.20;57.90;;;;;;5031094;28;20033;-64
2023/06/17 05:41:35;;;;;;;10.93;7.47;;;21.30;57.70;;;;;;5030060;28;20116;-64
2023/06/17 05:44:01;;;;;;;10.52;7.47;;;21.30;57.60;;;;;;5043646;28;20076;-65
2023/06/17 05:46:28;;;;;;;10.77;7.35;;;21.40;57.50;;;;;;5042567;28;20025;-64
2023/06/17 05:48:53;;;;;;;10.55;7.05;;;21.50;57.60;;;;;;5055112;28;20029;-64
2023/06/17 05:51:20;;;;;;;10.40;7.50;;;21.50;57.40;;;;;;5038537;28;20022;-64
2023/06/17 05:53:46;;;;;;;10.68;6.95;;;21.60;57.20;;;;;;5033261;28;20112;-64
2023/06/17 05:56:12;;;;;;;10.23;7.05;;;21.60;57.10;;;;;;5029136;28;20052;-64
2023/06/17 05:58:38;;;;;;;13.32;7.05;;;21.70;57.00;;;;;;5007668;28;20030;-64
2023/06/17 06:01:10;;;;;;;10.90;6.60;;;21.80;57.30;;;;;;5026568;28;20029;-64
2023/06/17 06:03:35;;;;;;;10.65;7.93;;;21.80;56.60;;;;;;5026772;28;20048;-64
2023/06/17 06:06:01;;;;;;;10.30;7.13;;;21.90;56.40;;;;;;5025227;28;20025;-65
2023/06/17 06:08:28;;;;;;;10.85;6.82;;;21.90;56.30;;;;;;5026161;28;20040;-64
2023/06/17 06:10:53;;;;;;;9.68;6.40;;;22.00;56.20;;;;;;5028745;28;20026;-64
2023/06/17 06:13:19;;;;;;;9.15;6.38;;;22.10;56.00;;;;;;5029300;28;20360;-64
2023/06/17 06:15:46;;;;;;;9.93;6.30;;;22.20;55.80;;;;;;5010531;28;20034;-65
2023/06/17 06:18:13;;;;;;;11.30;6.40;;;22.30;55.60;;;;;;5026279;28;20026;-64
2023/06/17 06:20:38;;;;;;;8.85;5.75;;;22.40;55.40;;;;;;5023524;28;20049;-64
2023/06/17 06:23:06;;;;;;;9.15;5.95;;;22.50;55.20;;;;;;5025888;28;20107;-64
2023/06/17 06:25:31;;;;;;;9.90;5.90;;;22.70;55.10;;;;;;5011408;28;20128;-65
2023/06/17 06:27:58;;;;;;;10.43;6.30;;;22.70;54.80;;;;;;5036100;28;20454;-64
2023/06/17 06:30:26;;;;;;;8.10;5.38;;;22.80;54.60;;;;;;5039597;28;20337;-64
2023/06/17 06:32:54;;;;;;;9.45;5.85;;;22.90;54.20;;;;;;5041800;28;20028;-65
2023/06/17 06:35:21;;;;;;;9.60;5.50;;;23.00;53.80;;;;;;5008679;28;20025;-65
2023/06/17 06:37:48;;;;;;;8.20;5.38;;;23.10;53.30;;;;;;5026427;28;20075;-65
2023/06/17 06:40:14;;;;;;;8.50;5.15;;;23.10;52.30;;;;;;5027229;28;20033;-65
2023/06/17 06:42:40;;;;;;;9.73;5.32;;;23.30;52.00;;;;;;5029063;28;20033;-65
2023/06/17 06:45:20;;;;;;;10.67;5.13;;;23.40;51.50;;;;;;5028313;28;20312;-65
2023/06/17 06:47:46;;;;;;;9.02;4.65;;;23.60;51.00;;;;;;5024000;28;20041;-65
2023/06/17 06:50:12;;;;;;;7.03;4.53;;;23.70;50.10;;;;;;5008075;28;20505;-65
2023/06/17 06:52:37;;;;;;;7.05;4.38;;;23.90;49.60;;;;;;5029848;28;20120;-65
2023/06/17 06:55:04;;;;;;;8.75;4.03;;;24.00;49.00;;;;;;5055197;28;20036;-65
2023/06/17 06:57:30;;;;;;;7.63;4.15;;;24.20;48.40;;;;;;5053894;28;20035;-65
2023/06/17 06:59:56;;;;;;;7.63;3.83;;;24.30;47.90;;;;;;5053779;28;20116;-65
2023/06/17 07:02:22;;;;;;;7.72;4.05;;;24.50;47.50;;;;;;5036881;28;20026;-65
2023/06/17 07:04:48;;;;;;;7.10;4.00;;;24.70;47.10;;;;;;5025015;28;20030;-65
2023/06/17 07:07:16;;;;;;;7.38;3.78;;;24.80;46.20;;;;;;5044416;28;20021;-65
2023/06/17 07:09:42;;;;;;;7.05;3.80;;;24.90;45.50;;;;;;5051697;28;20048;-65
2023/06/17 07:12:08;;;;;;;7.85;3.85;;;25.10;45.00;;;;;;5014725;28;20025;-65
2023/06/17 07:14:37;;;;;;;7.05;3.75;;;25.20;44.20;;;;;;5037195;28;20040;-65
2023/06/17 07:17:03;;;;;;;7.78;4.07;;;25.30;43.50;;;;;;5039712;28;20050;-65
2023/06/17 07:19:29;;;;;;;7.93;3.97;;;25.50;43.10;;;;;;5046103;28;20495;-65
2023/06/17 07:21:55;;;;;;;7.88;3.85;;;25.60;42.70;;;;;;5053448;28;20111;-65
2023/06/17 07:24:21;;;;;;;7.57;3.72;;;25.70;42.50;;;;;;5053394;28;20114;-65
2023/06/17 07:26:47;;;;;;;6.28;3.65;;;25.90;42.20;;;;;;5047587;28;20345;-65
2023/06/17 07:29:13;;;;;;;8.25;3.97;;;26.00;41.80;;;;;;5034457;28;20352;-65
2023/06/17 07:31:39;;;;;;;6.80;3.78;;;26.10;41.30;;;;;;5029802;28;20021;-65
2023/06/17 07:34:05;;;;;;;6.10;3.30;;;26.20;41.10;;;;;;5031868;28;20350;-66
2023/06/17 07:36:30;;;;;;;8.32;4.03;;;26.40;41.10;;;;;;5035699;28;20112;-67
2023/06/17 07:38:57;;;;;;;8.45;3.45;;;26.50;41.70;;;;;;5028738;28;20029;-64
2023/06/17 07:41:23;;;;;;;8.23;4.03;;;26.70;40.80;;;;;;5032154;28;20041;-63
2023/06/17 07:43:49;;;;;;;8.02;3.70;;;26.80;40.50;;;;;;5046466;28;20032;-63
2023/06/17 07:46:15;;;;;;;6.57;3.38;;;26.90;40.10;;;;;;5053044;28;20021;-63
2023/06/17 07:48:41;;;;;;;8.70;3.50;;;26.90;39.70;;;;;;5030195;28;20447;-63
2023/06/17 07:51:07;;;;;;;6.47;3.60;;;27.00;39.40;;;;;;5044830;28;20021;-63
2023/06/17 07:53:32;;;;;;;8.20;3.75;;;27.20;39.40;;;;;;5022250;28;20029;-63
2023/06/17 07:55:58;;;;;;;7.97;4.30;;;27.30;39.10;;;;;;5046698;28;20028;-64
2023/06/17 07:58:24;;;;;;;7.35;3.80;;;27.40;38.80;;;;;;5028792;28;20033;-63
2023/06/17 08:00:50;;;;;;;6.28;3.50;;;27.40;38.50;;;;;;5032047;28;20029;-63
2023/06/17 08:03:16;;;;;;;6.97;3.95;;;27.60;38.30;;;;;;5031670;28;20025;-64
2023/06/17 08:05:41;;;;;;;7.38;3.83;;;27.70;38.10;;;;;;5031911;28;20108;-64
2023/06/17 08:08:07;;;;;;;6.95;4.05;;;27.70;37.60;;;;;;5027801;28;20112;-64
2023/06/17 08:10:33;;;;;;;6.43;3.42;;;27.90;37.70;;;;;;5031889;28;20132;-64
2023/06/17 08:12:58;;;;;;;7.15;3.92;;;27.90;37.30;;;;;;5033864;28;20044;-64
2023/06/17 08:15:24;;;;;;;6.28;3.67;;;28.10;37.40;;;;;;5029834;28;20438;-64
2023/06/17 08:17:52;;;;;;;6.13;3.38;;;28.10;37.10;;;;;;5033457;28;20124;-64
2023/06/17 08:20:21;;;;;;;6.03;3.60;;;28.20;36.70;;;;;;5028597;28;20040;-64
2023/06/17 08:22:47;;;;;;;7.05;3.35;;;28.30;36.60;;;;;;5026387;28;20026;-64
2023/06/17 08:25:13;;;;;;;9.20;3.75;;;28.40;36.20;;;;;;5028253;28;20366;-63
2023/06/17 08:27:42;;;;;;;5.70;3.17;;;28.50;35.70;;;;;;5019501;28;20037;-64
2023/06/17 08:30:08;;;;;;;6.05;3.63;;;28.60;35.30;;;;;;5032634;28;20029;-64
2023/06/17 08:32:34;;;;;;;6.63;3.92;;;28.70;35.10;;;;;;5030982;28;20109;-64
2023/06/17 08:35:05;;;;;;;8.13;3.78;;;28.80;35.30;;;;;;5029941;28;20157;-64
2023/06/17 08:37:34;;;;;;;6.55;3.60;;;28.90;35.50;;;;;;5029303;28;20421;-64
2023/06/17 08:40:00;;;;;;;6.43;3.53;;;29.00;35.50;;;;;;5036039;28;20048;-64
2023/06/17 08:42:28;;;;;;;7.20;3.55;;;29.10;35.50;;;;;;5045857;28;20032;-64
2023/06/17 08:44:56;;;;;;;7.07;3.63;;;29.10;35.40;;;;;;5042622;28;20021;-63
2023/06/17 08:47:23;;;;;;;6.50;3.60;;;29.20;35.10;;;;;;5031062;28;20351;-64
2023/06/17 08:49:49;;;;;;;7.18;3.70;;;29.30;35.30;;;;;;5029734;28;20026;-64
2023/06/17 08:52:15;;;;;;;6.45;3.65;;;29.40;34.50;;;;;;5036289;28;20438;-64
2023/06/17 08:54:42;;;;;;;7.63;3.83;;;29.50;34.20;;;;;;5037749;28;20018;-64
2023/06/17 08:57:13;;;;;;;5.95;3.35;;;29.50;34.20;;;;;;5033188;28;20048;-64
2023/06/17 08:59:40;;;;;;;7.63;3.35;;;29.60;33.60;;;;;;5035890;28;20108;-64
2023/06/17 09:02:06;;;;;;;7.03;3.22;;;29.60;33.40;;;;;;5036155;28;20116;-64
2023/06/17 09:04:32;;;;;;;7.38;3.53;;;29.60;33.30;;;;;;5035886;28;20112;-64
2023/06/17 09:06:58;;;;;;;6.55;3.38;;;29.70;33.20;;;;;;5030602;28;20045;-64
2023/06/17 09:09:24;;;;;;;5.75;3.20;;;29.80;32.60;;;;;;5030923;28;20091;-64
2023/06/17 09:11:51;;;;;;;5.90;3.30;;;29.80;32.20;;;;;;5029452;28;20026;-64
2023/06/17 09:14:18;;;;;;;6.65;3.30;;;29.80;32.30;;;;;;5032561;28;20396;-64
2023/06/17 09:16:45;;;;;;;6.43;3.45;;;29.90;32.40;;;;;;5037133;28;20120;-64
2023/06/17 09:19:13;;;;;;;7.32;3.03;;;30.00;32.20;;;;;;5036040;28;20018;-64
2023/06/17 09:21:39;;;;;;;5.60;3.08;;;30.00;31.90;;;;;;5033417;28;20033;-64
2023/06/17 09:24:08;;;;;;;5.95;3.30;;;30.00;31.60;;;;;;5030551;28;20029;-64
2023/06/17 09:26:44;;;;;;;5.82;3.17;;;30.10;31.50;;;;;;5033561;28;20017;-64
2023/06/17 09:29:12;;;;;;;6.25;2.85;;;30.20;31.10;;;;;;5037170;28;20101;-64
2023/06/17 09:31:52;;;;;;;5.57;2.85;;;30.20;30.90;;;;;;5035649;28;20045;-64
2023/06/17 09:34:20;;;;;;;6.70;3.50;;;30.30;31.20;;;;;;5034530;28;20033;-64
2023/06/17 09:36:51;;;;;;;7.22;2.72;;;30.50;30.70;;;;;;5036769;28;20320;-64
2023/06/17 09:39:18;;;;;;;5.88;2.88;;;30.50;30.50;;;;;;5039121;28;20096;-64
2023/06/17 09:41:44;;;;;;;5.60;3.13;;;30.70;30.50;;;;;;5037518;28;20330;-64
2023/06/17 09:44:11;;;;;;;5.50;2.90;;;30.80;30.30;;;;;;5034286;28;20033;-64
2023/06/17 09:46:39;;;;;;;6.97;3.03;;;30.80;30.20;;;;;;5055036;28;20351;-64
2023/06/17 09:49:11;;;;;;;5.10;3.08;;;31.00;30.30;;;;;;5039130;28;20331;-64
2023/06/17 09:51:38;;;;;;;7.95;3.53;;;31.00;30.00;;;;;;5048589;28;20275;-64
2023/06/17 09:54:08;;;;;;;5.97;2.90;;;31.10;29.90;;;;;;5031671;28;20033;-67
2023/06/17 09:56:35;;;;;;;5.40;2.80;;;31.10;29.80;;;;;;5028896;28;20163;-64
2023/06/17 09:59:07;;;;;;;6.45;3.40;;;31.20;30.00;;;;;;5034718;28;20029;-64
2023/06/17 10:01:39;;;;;;;4.80;2.67;;;31.20;29.60;;;;;;5038557;28;20098;-64
2023/06/17 10:04:07;;;;;;;5.60;3.00;;;31.20;29.70;;;;;;5029016;28;20037;-65
2023/06/17 10:06:39;;;;;;;7.97;3.00;;;31.40;29.70;;;;;;5054403;28;20131;-64
2023/06/17 10:09:07;;;;;;;6.85;3.28;;;31.40;29.40;;;;;;5043666;28;20108;-65
2023/06/17 10:11:35;;;;;;;6.40;3.20;;;31.40;29.30;;;;;;5039913;28;20029;-64
2023/06/17 10:14:10;;;;;;;5.57;2.90;;;31.30;29.40;;;;;;5033957;28;20030;-65
2023/06/17 10:16:40;;;;;;;5.45;2.83;;;31.40;29.40;;;;;;5053415;28;20063;-65
2023/06/17 10:19:10;;;;;;;6.85;2.70;;;31.40;29.40;;;;;;5039340;28;20033;-64
2023/06/17 10:21:42;;;;;;;5.60;2.87;;;31.50;29.40;;;;;;5044773;28;20029;-64
2023/06/17 10:24:08;;;;;;;5.88;2.80;;;31.60;29.30;;;;;;5049038;28;20438;-64
2023/06/17 10:26:34;;;;;;;7.22;3.20;;;31.60;29.40;;;;;;5051230;28;20035;-64
2023/06/17 10:29:01;;;;;;;6.25;2.90;;;31.70;29.50;;;;;;5037878;28;20033;-64
2023/06/17 10:31:32;;;;;;;5.57;2.97;;;31.70;29.60;;;;;;5048482;28;20426;-64
2023/06/17 10:34:01;;;;;;;6.95;3.22;;;31.80;29.60;;;;;;5036544;28;20036;-65
2023/06/17 10:36:28;;;;;;;6.30;2.83;;;31.80;29.50;;;;;;5037522;28;20022;-64
2023/06/17 10:38:57;;;;;;;6.15;3.10;;;31.80;29.40;;;;;;5038056;28;20067;-65
2023/06/17 10:41:46;;;;;;;5.70;2.83;;;31.80;29.00;;;;;;5049203;28;20039;-64
2023/06/17 10:44:23;;;;;;;7.75;3.00;;;31.80;29.10;;;;;;5040008;28;20063;-65
2023/06/17 10:46:52;;;;;;;7.57;3.10;;;31.80;29.00;;;;;;5046291;28;20029;-64
2023/06/17 10:49:19;;;;;;;7.20;3.08;;;31.80;29.30;;;;;;5031890;28;20032;-64
2023/06/17 10:51:50;;;;;;;5.47;2.83;;;31.80;29.30;;;;;;5025228;28;20029;-64
2023/06/17 10:54:26;;;;;;;6.90;2.97;;;31.90;29.20;;;;;;5037260;28;20029;-65
2023/06/17 10:56:52;;;;;;;5.60;2.85;;;32.00;29.00;;;;;;5031850;28;20033;-64
2023/06/17 10:59:31;;;;;;;5.60;2.75;;;32.00;29.10;;;;;;5030987;28;20033;-64
2023/06/17 11:02:03;;;;;;;7.28;3.20;;;32.10;28.90;;;;;;5035000;28;20045;-64
2023/06/17 11:04:31;;;;;;;5.80;2.40;;;32.10;29.00;;;;;;5032694;28;20078;-64
2023/06/17 11:06:59;;;;;;;7.03;2.92;;;32.10;28.90;;;;;;5033661;28;20454;-64
2023/06/17 11:09:28;;;;;;;6.65;3.13;;;32.10;28.70;;;;;;5030227;28;20028;-64
2023/06/17 11:12:00;;;;;;;4.35;2.17;;;32.20;28.40;;;;;;5033861;28;20029;-65
2023/06/17 11:14:30;;;;;;;7.00;3.28;;;32.20;28.40;;;;;;5033108;28;20029;-65
2023/06/17 11:16:56;;;;;;;6.40;3.30;;;32.20;28.50;;;;;;5026369;28;20493;-64
2023/06/17 11:19:23;;;;;;;5.40;2.75;;;32.20;28.60;;;;;;5027830;28;20026;-64
2023/06/17 11:22:03;;;;;;;5.90;3.15;;;32.10;28.50;;;;;;5030434;28;20080;-64
2023/06/17 11:24:33;;;;;;;5.40;2.72;;;32.10;28.60;;;;;;5029687;28;20026;-64
2023/06/17 11:27:00;;;;;;;6.38;2.78;;;32.20;28.60;;;;;;5028952;28;20406;-65
2023/06/17 11:29:27;;;;;;;6.53;3.17;;;32.20;28.60;;;;;;5034222;28;20036;-64
2023/06/17 11:31:59;;;;;;;6.43;2.75;;;32.30;28.60;;;;;;5030286;28;20018;-64
2023/06/17 11:34:31;;;;;;;5.63;2.90;;;32.30;28.50;;;;;;5040027;28;20485;-65
2023/06/17 11:37:00;;;;;;;6.82;3.20;;;32.30;28.50;;;;;;5026495;28;20029;-64
2023/06/17 11:39:32;;;;;;;6.25;3.13;;;32.30;28.20;;;;;;5018127;28;20101;-65
2023/06/17 11:42:01;;;;;;;5.90;2.80;;;32.20;28.20;;;;;;5025494;28;20509;-64
2023/06/17 11:44:36;;;;;;;7.28;3.08;;;32.10;28.30;;;;;;5028633;28;20044;-64
2023/06/17 11:47:04;;;;;;;7.03;3.00;;;32.10;28.20;;;;;;5026773;28;20026;-65
2023/06/17 11:49:30;;;;;;;9.63;3.10;;;32.00;28.30;;;;;;5027880;28;20029;-65
2023/06/17 11:52:06;;;;;;;5.20;2.80;;;32.00;28.40;;;;;;5030142;28;20018;-64
2023/06/17 11:54:32;;;;;;;7.53;3.08;;;32.10;28.50;;;;;;5023152;28;20030;-64
2023/06/17 11:56:59;;;;;;;6.30;2.85;;;32.10;28.50;;;;;;5024611;28;20067;-64
2023/06/17 11:59:25;;;;;;;6.47;2.72;;;32.10;28.30;;;;;;5026921;28;20029;-64
2023/06/17 12:01:53;;;;;;;8.43;3.35;;;32.00;28.30;;;;;;5030618;28;20362;-64
2023/06/17 12:04:20;;;;;;;6.55;3.15;;;32.10;28.40;;;;;;5028328;28;20445;-64
2023/06/17 12:06:47;;;;;;;7.25;3.40;;;32.00;28.30;;;;;;5023928;28;20375;-64
2023/06/17 12:09:12;;;;;;;6.18;2.80;;;31.90;28.10;;;;;;5026580;28;20017;-64
2023/06/17 12:11:39;;;;;;;5.90;3.10;;;31.90;28.20;;;;;;5024663;28;20033;-64
2023/06/17 12:14:10;;;;;;;6.72;3.20;;;31.80;28.30;;;;;;5025414;28;20149;-65
2023/06/17 12:16:39;;;;;;;7.38;3.40;;;31.70;28.20;;;;;;5026947;28;20129;-67
2023/06/17 12:19:13;;;;;;;5.85;3.08;;;31.60;28.20;;;;;;5024980;28;20331;-67
2023/06/17 12:21:39;;;;;;;5.70;3.05;;;31.40;28.20;;;;;;5037675;28;20493;-67
2023/06/17 12:24:05;;;;;;;5.82;2.70;;;31.40;28.20;;;;;;5027803;28;20109;-67
2023/06/17 12:26:31;;;;;;;5.38;2.83;;;31.30;28.20;;;;;;5038158;28;20033;-67
2023/06/17 12:28:57;;;;;;;6.68;3.20;;;31.30;28.20;;;;;;5036773;28;20405;-67
2023/06/17 12:31:25;;;;;;;6.38;3.20;;;31.30;28.20;;;;;;5038015;28;20399;-67
2023/06/17 12:33:51;;;;;;;5.63;2.90;;;31.20;28.20;;;;;;5037902;28;20029;-67
2023/06/17 12:36:17;;;;;;;6.03;3.10;;;31.20;28.40;;;;;;5036822;28;20342;-67
2023/06/17 12:38:44;;;;;;;5.70;3.28;;;31.10;28.30;;;;;;5035783;28;20029;-67
2023/06/17 12:41:10;;;;;;;6.72;3.33;;;31.10;28.80;;;;;;5057610;28;20337;-67
2023/06/17 12:43:38;;;;;;;5.78;3.00;;;30.90;28.30;;;;;;5056655;28;20382;-67
2023/06/17 12:46:05;;;;;;;6.55;3.47;;;30.90;28.40;;;;;;5057249;28;20382;-67
2023/06/17 12:48:35;;;;;;;5.65;2.72;;;30.90;28.50;;;;;;5057370;28;20021;-67
2023/06/17 12:51:03;;;;;;;;;;;30.80;28.40;;;;;;5039910;28;20113;-67